<?xml version="1.0" encoding="UTF-8"?><gpx xmlns="http://www.topografix.com/GPX/1/1" version="1.1" creator="iOrient"><trk><name>Рогейн «Весенний Джрвеж»</name><trkseg><trkpt lat="40.1824662" lon="44.6228778"><time>2023-03-12T07:57:36.560</time></trkpt><trkpt lat="40.1831547" lon="44.6235436"><time>2023-03-12T08:02:38.573</time></trkpt><trkpt lat="40.1831935" lon="44.6235765"><time>2023-03-12T08:02:41.573</time></trkpt><trkpt lat="40.1832336" lon="44.6236098"><time>2023-03-12T08:02:44.550</time></trkpt><trkpt lat="40.1832809" lon="44.6236568"><time>2023-03-12T08:02:48.553</time></trkpt><trkpt lat="40.1833242" lon="44.6236836"><time>2023-03-12T08:02:52.543</time></trkpt><trkpt lat="40.1833714" lon="44.6236563"><time>2023-03-12T08:02:56.553</time></trkpt><trkpt lat="40.1834163" lon="44.6236431"><time>2023-03-12T08:03:00.550</time></trkpt><trkpt lat="40.1834596" lon="44.6236824"><time>2023-03-12T08:03:05.550</time></trkpt><trkpt lat="40.1835135" lon="44.6236987"><time>2023-03-12T08:03:09.560</time></trkpt><trkpt lat="40.1835660" lon="44.6236822"><time>2023-03-12T08:03:13.557</time></trkpt><trkpt lat="40.1836162" lon="44.6236644"><time>2023-03-12T08:03:18.570</time></trkpt><trkpt lat="40.1836653" lon="44.6236814"><time>2023-03-12T08:03:23.540</time></trkpt><trkpt lat="40.1837125" lon="44.6236373"><time>2023-03-12T08:03:28.550</time></trkpt><trkpt lat="40.1837585" lon="44.6235948"><time>2023-03-12T08:03:32.550</time></trkpt><trkpt lat="40.1837788" lon="44.6235325"><time>2023-03-12T08:03:38.547</time></trkpt><trkpt lat="40.1838068" lon="44.6234735"><time>2023-03-12T08:03:43.540</time></trkpt><trkpt lat="40.1846971" lon="44.6240016"><time>2023-03-12T08:05:14.910</time></trkpt><trkpt lat="40.1847095" lon="44.6240110"><time>2023-03-12T08:05:16.683</time></trkpt><trkpt lat="40.1846527" lon="44.6239821"><time>2023-03-12T08:05:26.557</time></trkpt><trkpt lat="40.1846075" lon="44.6239924"><time>2023-03-12T08:05:31.577</time></trkpt><trkpt lat="40.1845750" lon="44.6240432"><time>2023-03-12T08:05:37.557</time></trkpt><trkpt lat="40.1845476" lon="44.6241038"><time>2023-03-12T08:05:43.573</time></trkpt><trkpt lat="40.1845129" lon="44.6241456"><time>2023-03-12T08:05:48.553</time></trkpt><trkpt lat="40.1844575" lon="44.6241480"><time>2023-03-12T08:05:53.543</time></trkpt><trkpt lat="40.1844070" lon="44.6241792"><time>2023-03-12T08:05:58.547</time></trkpt><trkpt lat="40.1843768" lon="44.6242388"><time>2023-03-12T08:06:02.553</time></trkpt><trkpt lat="40.1843425" lon="44.6242791"><time>2023-03-12T08:06:06.547</time></trkpt><trkpt lat="40.1843083" lon="44.6243193"><time>2023-03-12T08:06:10.557</time></trkpt><trkpt lat="40.1842754" lon="44.6243744"><time>2023-03-12T08:06:15.553</time></trkpt><trkpt lat="40.1842386" lon="44.6244110"><time>2023-03-12T08:06:19.550</time></trkpt><trkpt lat="40.1842277" lon="44.6244742"><time>2023-03-12T08:06:23.550</time></trkpt><trkpt lat="40.1842001" lon="44.6245363"><time>2023-03-12T08:06:28.550</time></trkpt><trkpt lat="40.1841550" lon="44.6245698"><time>2023-03-12T08:06:33.547</time></trkpt><trkpt lat="40.1841300" lon="44.6246282"><time>2023-03-12T08:06:38.557</time></trkpt><trkpt lat="40.1841376" lon="44.6246972"><time>2023-03-12T08:06:42.547</time></trkpt><trkpt lat="40.1832644" lon="44.6259619"><time>2023-03-12T08:09:22.890</time></trkpt><trkpt lat="40.1833127" lon="44.6259589"><time>2023-03-12T08:09:26.543</time></trkpt><trkpt lat="40.1833472" lon="44.6259771"><time>2023-03-12T08:09:29.777</time></trkpt><trkpt lat="40.1833527" lon="44.6259867"><time>2023-03-12T08:09:38.553</time></trkpt><trkpt lat="40.1833045" lon="44.6259761"><time>2023-03-12T08:09:52.540</time></trkpt><trkpt lat="40.1832524" lon="44.6259665"><time>2023-03-12T08:09:56.533</time></trkpt><trkpt lat="40.1832191" lon="44.6260073"><time>2023-03-12T08:10:00.547</time></trkpt><trkpt lat="40.1831814" lon="44.6260424"><time>2023-03-12T08:10:14.547</time></trkpt><trkpt lat="40.1831326" lon="44.6260543"><time>2023-03-12T08:11:20.530</time></trkpt><trkpt lat="40.1831049" lon="44.6261036"><time>2023-03-12T08:11:31.540</time></trkpt><trkpt lat="40.1830608" lon="44.6261330"><time>2023-03-12T08:11:37.543</time></trkpt><trkpt lat="40.1830198" lon="44.6261610"><time>2023-03-12T08:11:42.540</time></trkpt><trkpt lat="40.1829754" lon="44.6261703"><time>2023-03-12T08:12:03.547</time></trkpt><trkpt lat="40.1829473" lon="44.6262251"><time>2023-03-12T08:12:20.543</time></trkpt><trkpt lat="40.1829030" lon="44.6262532"><time>2023-03-12T08:12:26.537</time></trkpt><trkpt lat="40.1829044" lon="44.6263188"><time>2023-03-12T08:12:32.530</time></trkpt><trkpt lat="40.1828571" lon="44.6263395"><time>2023-03-12T08:12:41.547</time></trkpt><trkpt lat="40.1828187" lon="44.6263762"><time>2023-03-12T08:12:45.543</time></trkpt><trkpt lat="40.1827950" lon="44.6264266"><time>2023-03-12T08:12:52.550</time></trkpt><trkpt lat="40.1826443" lon="44.6281004"><time>2023-03-12T08:15:35.577</time></trkpt><trkpt lat="40.1826242" lon="44.6281574"><time>2023-03-12T08:15:44.557</time></trkpt><trkpt lat="40.1825732" lon="44.6281671"><time>2023-03-12T08:15:50.543</time></trkpt><trkpt lat="40.1825431" lon="44.6282138"><time>2023-03-12T08:16:08.567</time></trkpt><trkpt lat="40.1824984" lon="44.6282028"><time>2023-03-12T08:16:26.543</time></trkpt><trkpt lat="40.1819933" lon="44.6292809"><time>2023-03-12T08:28:25.590</time></trkpt><trkpt lat="40.1820079" lon="44.6292888"><time>2023-03-12T08:28:31.937</time></trkpt><trkpt lat="40.1819458" lon="44.6292512"><time>2023-03-12T08:28:40.550</time></trkpt><trkpt lat="40.1819026" lon="44.6292327"><time>2023-03-12T08:28:48.550</time></trkpt><trkpt lat="40.1818603" lon="44.6292666"><time>2023-03-12T08:28:53.553</time></trkpt><trkpt lat="40.1818142" lon="44.6292798"><time>2023-03-12T08:28:55.567</time></trkpt><trkpt lat="40.1817630" lon="44.6292994"><time>2023-03-12T08:28:59.550</time></trkpt><trkpt lat="40.1817154" lon="44.6293087"><time>2023-03-12T08:29:05.557</time></trkpt><trkpt lat="40.1816628" lon="44.6293270"><time>2023-03-12T08:29:10.537</time></trkpt><trkpt lat="40.1816102" lon="44.6293400"><time>2023-03-12T08:29:18.543</time></trkpt><trkpt lat="40.1815541" lon="44.6293721"><time>2023-03-12T08:29:23.533</time></trkpt><trkpt lat="40.1815012" lon="44.6293822"><time>2023-03-12T08:29:27.540</time></trkpt><trkpt lat="40.1814524" lon="44.6293771"><time>2023-03-12T08:29:32.550</time></trkpt><trkpt lat="40.1814051" lon="44.6293769"><time>2023-03-12T08:29:38.537</time></trkpt><trkpt lat="40.1800734" lon="44.6299855"><time>2023-03-12T08:45:33.537</time></trkpt><trkpt lat="40.1801051" lon="44.6299380"><time>2023-03-12T08:45:38.540</time></trkpt><trkpt lat="40.1801325" lon="44.6298879"><time>2023-03-12T08:45:46.633</time></trkpt><trkpt lat="40.1801642" lon="44.6299298"><time>2023-03-12T08:45:54.537</time></trkpt><trkpt lat="40.1801531" lon="44.6299331"><time>2023-03-12T08:45:57.807</time></trkpt><trkpt lat="40.1802096" lon="44.6299404"><time>2023-03-12T08:46:15.533</time></trkpt><trkpt lat="40.1788509" lon="44.6266221"><time>2023-03-12T09:11:35.567</time></trkpt><trkpt lat="40.1788046" lon="44.6266040"><time>2023-03-12T09:11:44.547</time></trkpt><trkpt lat="40.1788230" lon="44.6266694"><time>2023-03-12T09:12:02.557</time></trkpt><trkpt lat="40.1787664" lon="44.6266770"><time>2023-03-12T09:12:34.537</time></trkpt><trkpt lat="40.1787335" lon="44.6267178"><time>2023-03-12T09:12:39.540</time></trkpt><trkpt lat="40.1786996" lon="44.6267602"><time>2023-03-12T09:12:45.543</time></trkpt><trkpt lat="40.1782019" lon="44.6270378"><time>2023-03-12T09:13:36.540</time></trkpt><trkpt lat="40.1781389" lon="44.6270376"><time>2023-03-12T09:13:41.523</time></trkpt><trkpt lat="40.1780932" lon="44.6270596"><time>2023-03-12T09:13:43.537</time></trkpt><trkpt lat="40.1780391" lon="44.6270728"><time>2023-03-12T09:13:46.520</time></trkpt><trkpt lat="40.1779894" lon="44.6270877"><time>2023-03-12T09:13:51.533</time></trkpt><trkpt lat="40.1779783" lon="44.6271473"><time>2023-03-12T09:13:57.533</time></trkpt><trkpt lat="40.1779244" lon="44.6271479"><time>2023-03-12T09:14:04.530</time></trkpt><trkpt lat="40.1779171" lon="44.6272070"><time>2023-03-12T09:14:17.537</time></trkpt><trkpt lat="40.1779628" lon="44.6272258"><time>2023-03-12T09:14:24.540</time></trkpt><trkpt lat="40.1779689" lon="44.6272633"><time>2023-03-12T09:14:27.827</time></trkpt><trkpt lat="40.1779205" lon="44.6271929"><time>2023-03-12T09:14:41.530</time></trkpt><trkpt lat="40.1779640" lon="44.6271586"><time>2023-03-12T09:14:52.547</time></trkpt><trkpt lat="40.1780064" lon="44.6271242"><time>2023-03-12T09:14:56.533</time></trkpt><trkpt lat="40.1780455" lon="44.6270878"><time>2023-03-12T09:15:33.547</time></trkpt><trkpt lat="40.1780907" lon="44.6270761"><time>2023-03-12T09:15:36.537</time></trkpt><trkpt lat="40.1781455" lon="44.6270771"><time>2023-03-12T09:15:40.557</time></trkpt><trkpt lat="40.1782025" lon="44.6270695"><time>2023-03-12T09:15:44.553</time></trkpt><trkpt lat="40.1782550" lon="44.6270539"><time>2023-03-12T09:15:48.540</time></trkpt><trkpt lat="40.1783008" lon="44.6270244"><time>2023-03-12T09:15:52.600</time></trkpt><trkpt lat="40.1783408" lon="44.6269965"><time>2023-03-12T09:15:55.553</time></trkpt><trkpt lat="40.1783915" lon="44.6269678"><time>2023-03-12T09:15:59.553</time></trkpt><trkpt lat="40.1784446" lon="44.6269364"><time>2023-03-12T09:16:03.533</time></trkpt><trkpt lat="40.1784944" lon="44.6269050"><time>2023-03-12T09:16:07.550</time></trkpt><trkpt lat="40.1785396" lon="44.6268687"><time>2023-03-12T09:16:11.537</time></trkpt><trkpt lat="40.1785806" lon="44.6268242"><time>2023-03-12T09:16:15.527</time></trkpt><trkpt lat="40.1786284" lon="44.6267821"><time>2023-03-12T09:16:19.537</time></trkpt><trkpt lat="40.1786815" lon="44.6267325"><time>2023-03-12T09:16:22.533</time></trkpt><trkpt lat="40.1787170" lon="44.6266957"><time>2023-03-12T09:16:24.530</time></trkpt><trkpt lat="40.1787658" lon="44.6266563"><time>2023-03-12T09:16:27.530</time></trkpt><trkpt lat="40.1788137" lon="44.6266138"><time>2023-03-12T09:16:30.523</time></trkpt><trkpt lat="40.1788554" lon="44.6265668"><time>2023-03-12T09:16:33.530</time></trkpt><trkpt lat="40.1788958" lon="44.6265221"><time>2023-03-12T09:16:36.523</time></trkpt><trkpt lat="40.1789427" lon="44.6264900"><time>2023-03-12T09:16:39.523</time></trkpt><trkpt lat="40.1789811" lon="44.6264557"><time>2023-03-12T09:16:42.530</time></trkpt><trkpt lat="40.1790276" lon="44.6264207"><time>2023-03-12T09:16:45.530</time></trkpt><trkpt lat="40.1790796" lon="44.6263910"><time>2023-03-12T09:16:48.527</time></trkpt><trkpt lat="40.1791314" lon="44.6263552"><time>2023-03-12T09:16:51.533</time></trkpt><trkpt lat="40.1791864" lon="44.6263135"><time>2023-03-12T09:16:54.550</time></trkpt><trkpt lat="40.1792405" lon="44.6262910"><time>2023-03-12T09:16:57.543</time></trkpt><trkpt lat="40.1792823" lon="44.6262510"><time>2023-03-12T09:17:00.523</time></trkpt><trkpt lat="40.1793063" lon="44.6261845"><time>2023-03-12T09:17:04.533</time></trkpt><trkpt lat="40.1793611" lon="44.6261553"><time>2023-03-12T09:17:08.533</time></trkpt><trkpt lat="40.1794107" lon="44.6261324"><time>2023-03-12T09:17:11.530</time></trkpt><trkpt lat="40.1794654" lon="44.6260896"><time>2023-03-12T09:17:14.530</time></trkpt><trkpt lat="40.1795050" lon="44.6260613"><time>2023-03-12T09:17:17.530</time></trkpt><trkpt lat="40.1815125" lon="44.6227430"><time>2023-03-12T09:25:09.557</time></trkpt><trkpt lat="40.1815644" lon="44.6227672"><time>2023-03-12T09:25:12.540</time></trkpt><trkpt lat="40.1816160" lon="44.6227919"><time>2023-03-12T09:25:15.520</time></trkpt><trkpt lat="40.1816743" lon="44.6228173"><time>2023-03-12T09:25:18.527</time></trkpt><trkpt lat="40.1817318" lon="44.6228259"><time>2023-03-12T09:25:21.530</time></trkpt><trkpt lat="40.1817870" lon="44.6228413"><time>2023-03-12T09:25:23.530</time></trkpt><trkpt lat="40.1818449" lon="44.6228395"><time>2023-03-12T09:25:25.527</time></trkpt><trkpt lat="40.1818977" lon="44.6228126"><time>2023-03-12T09:25:27.527</time></trkpt><trkpt lat="40.1819418" lon="44.6227681"><time>2023-03-12T09:25:29.527</time></trkpt><trkpt lat="40.1819841" lon="44.6227320"><time>2023-03-12T09:25:31.527</time></trkpt><trkpt lat="40.1820323" lon="44.6226905"><time>2023-03-12T09:25:33.533</time></trkpt><trkpt lat="40.1820867" lon="44.6226643"><time>2023-03-12T09:25:35.533</time></trkpt><trkpt lat="40.1821285" lon="44.6227005"><time>2023-03-12T09:25:40.530</time></trkpt><trkpt lat="40.1821803" lon="44.6227198"><time>2023-03-12T09:25:42.523</time></trkpt><trkpt lat="40.1822333" lon="44.6227367"><time>2023-03-12T09:25:44.523</time></trkpt><trkpt lat="40.1822807" lon="44.6227571"><time>2023-03-12T09:25:46.520</time></trkpt><trkpt lat="40.1823276" lon="44.6227968"><time>2023-03-12T09:25:48.530</time></trkpt><trkpt lat="40.1823925" lon="44.6228421"><time>2023-03-12T09:25:51.530</time></trkpt><trkpt lat="40.1824419" lon="44.6228598"><time>2023-03-12T09:25:53.530</time></trkpt><trkpt lat="40.1824937" lon="44.6228591"><time>2023-03-12T09:25:55.530</time></trkpt></trkseg></trk></gpx>